Time;durP1;ratioP1;P1;durP2;ratioP2;P2;SDS_P1;SDS_P2;PMS_P1;PMS_P2;Temp;Humidity;BMP_temperature;BMP_pressure;BME280_temperature;BME280_humidity;BME280_pressure;Samples;Min_cycle;Max_cycle;Signal;HPM_P1;HPM_P2
2023/12/02 00:02:10;;;;;;;1.33;1.23;;;;;;;;;;4997283;28;20475;-47
2023/12/02 00:04:35;;;;;;;1.23;1.10;;;;;;;;;;5016379;28;20149;-42
2023/12/02 00:07:00;;;;;;;0.47;0.32;;;;;;;;;;5008252;28;20117;-45
2023/12/02 00:09:26;;;;;;;0.63;0.63;;;;;;;;;;5002728;28;20041;-44
2023/12/02 00:11:51;;;;;;;1.02;0.98;;;;;;;;;;5000886;28;20049;-45
2023/12/02 00:14:17;;;;;;;1.35;0.65;;;;;;;;;;5014860;28;20072;-49
2023/12/02 00:16:42;;;;;;;1.58;1.27;;;;;;;;;;5011589;28;20038;-43
2023/12/02 00:19:08;;;;;;;0.95;0.47;;;;;;;;;;5008870;28;20108;-45
2023/12/02 00:21:33;;;;;;;0.47;0.40;;;;;;;;;;5009479;28;20035;-43
2023/12/02 00:23:58;;;;;;;1.50;0.75;;;;;;;;;;5013763;28;20053;-47
2023/12/02 00:26:24;;;;;;;0.82;0.73;;;;;;;;;;5010278;28;20107;-45
2023/12/02 00:28:49;;;;;;;1.75;1.60;;;;;;;;;;5000498;28;20034;-44
2023/12/02 00:31:15;;;;;;;0.55;0.50;;;;;;;;;;5009073;28;20050;-45
2023/12/02 00:33:40;;;;;;;1.00;1.00;;;;;;;;;;5010528;28;20021;-49
2023/12/02 00:36:06;;;;;;;0.30;0.22;;;;;;;;;;5007541;28;20044;-43
2023/12/02 00:38:31;;;;;;;2.47;2.38;;;;;;;;;;4994779;28;20026;-47
2023/12/02 00:40:57;;;;;;;1.27;0.70;;;;;;;;;;5007212;28;20069;-45
2023/12/02 00:43:23;;;;;;;0.50;0.50;;;;;;;;;;5006799;28;20021;-46
2023/12/02 00:45:49;;;;;;;0.73;0.63;;;;;;;;;;5009414;28;20559;-45
2023/12/02 00:48:14;;;;;;;0.88;0.88;;;;;;;;;;5016267;28;20707;-45
2023/12/02 00:50:40;;;;;;;1.05;1.05;;;;;;;;;;5012862;28;20135;-46
2023/12/02 00:53:05;;;;;;;2.13;2.03;;;;;;;;;;5005010;28;20377;-44
2023/12/02 00:55:30;;;;;;;0.73;0.52;;;;;;;;;;5000902;28;20505;-45
2023/12/02 00:57:56;;;;;;;0.73;0.50;;;;;;;;;;5014762;28;20493;-46
2023/12/02 01:00:22;;;;;;;1.40;1.35;;;;;;;;;;4995941;28;20403;-49
2023/12/02 01:02:48;;;;;;;3.15;2.22;;;;;;;;;;5017419;28;20053;-44
2023/12/02 01:05:13;;;;;;;0.63;0.63;;;;;;;;;;5017032;28;20053;-46
2023/12/02 01:07:39;;;;;;;1.45;0.70;;;;;;;;;;5011954;28;20112;-47
2023/12/02 01:10:05;;;;;;;0.50;0.22;;;;;;;;;;5005067;28;20038;-46
2023/12/02 01:12:31;;;;;;;0.55;0.55;;;;;;;;;;5016537;28;20029;-46
2023/12/02 01:14:56;;;;;;;0.43;0.30;;;;;;;;;;5017798;28;20042;-46
2023/12/02 01:17:21;;;;;;;0.52;0.52;;;;;;;;;;5019843;28;20479;-48
2023/12/02 01:19:47;;;;;;;1.42;0.50;;;;;;;;;;5018272;28;20041;-47
2023/12/02 01:22:12;;;;;;;1.55;1.55;;;;;;;;;;5006116;28;20356;-48
2023/12/02 01:24:38;;;;;;;1.73;1.73;;;;;;;;;;5011803;28;20369;-48
2023/12/02 01:27:03;;;;;;;1.77;1.75;;;;;;;;;;5020235;28;20021;-47
2023/12/02 01:29:29;;;;;;;0.63;0.52;;;;;;;;;;5016413;28;20083;-43
2023/12/02 01:31:54;;;;;;;1.73;1.63;;;;;;;;;;5014279;28;20065;-46
2023/12/02 01:34:19;;;;;;;1.95;0.77;;;;;;;;;;5018239;28;20022;-43
2023/12/02 01:36:45;;;;;;;1.35;1.25;;;;;;;;;;5017512;28;20132;-47
2023/12/02 01:39:12;;;;;;;0.80;0.80;;;;;;;;;;5020836;28;20022;-43
2023/12/02 01:41:38;;;;;;;0.77;0.73;;;;;;;;;;5018920;28;20167;-48
2023/12/02 01:44:04;;;;;;;0.95;0.95;;;;;;;;;;5012726;28;20033;-47
2023/12/02 01:46:29;;;;;;;1.38;0.80;;;;;;;;;;5015209;28;20838;-44
2023/12/02 01:48:58;;;;;;;0.38;0.17;;;;;;;;;;5010522;28;20030;-46
2023/12/02 01:51:24;;;;;;;0.52;0.52;;;;;;;;;;4999948;28;20031;-46
2023/12/02 01:53:49;;;;;;;1.00;0.57;;;;;;;;;;5008860;28;20049;-44
2023/12/02 01:56:14;;;;;;;1.00;1.00;;;;;;;;;;5012112;28;20037;-45
2023/12/02 01:58:40;;;;;;;0.80;0.77;;;;;;;;;;5008587;28;20030;-45
2023/12/02 02:01:06;;;;;;;1.70;1.60;;;;;;;;;;5017311;28;20077;-44
2023/12/02 02:03:32;;;;;;;1.83;1.73;;;;;;;;;;5011620;28;20473;-44
2023/12/02 02:05:58;;;;;;;0.68;0.60;;;;;;;;;;5018460;28;20083;-45
2023/12/02 02:08:24;;;;;;;1.08;1.05;;;;;;;;;;5010554;28;20022;-46
2023/12/02 02:10:57;;;;;;;0.57;0.57;;;;;;;;;;5012802;28;20042;-49
2023/12/02 02:13:23;;;;;;;1.52;1.52;;;;;;;;;;5016376;28;20037;-44
2023/12/02 02:15:48;;;;;;;1.25;0.93;;;;;;;;;;5011709;28;20038;-44
2023/12/02 02:18:13;;;;;;;1.00;0.98;;;;;;;;;;5008683;28;20031;-47
2023/12/02 02:20:39;;;;;;;1.08;0.75;;;;;;;;;;5007786;28;20571;-46
2023/12/02 02:23:04;;;;;;;0.38;0.35;;;;;;;;;;5004431;28;20030;-43
2023/12/02 02:25:30;;;;;;;0.75;0.60;;;;;;;;;;5010332;28;20080;-47
2023/12/02 02:27:55;;;;;;;0.73;0.73;;;;;;;;;;5010168;28;20034;-47
2023/12/02 02:30:22;;;;;;;1.08;0.68;;;;;;;;;;5010352;28;20103;-47
2023/12/02 02:32:47;;;;;;;0.65;0.65;;;;;;;;;;5012344;28;20092;-48
2023/12/02 02:35:12;;;;;;;0.98;0.98;;;;;;;;;;5009768;28;20050;-46
2023/12/02 02:37:38;;;;;;;0.95;0.82;;;;;;;;;;5013779;28;20484;-43
2023/12/02 02:40:05;;;;;;;2.53;2.47;;;;;;;;;;5015380;28;20048;-46
2023/12/02 02:42:31;;;;;;;0.75;0.68;;;;;;;;;;5011985;28;20058;-48
2023/12/02 02:44:56;;;;;;;0.65;0.57;;;;;;;;;;4991075;28;20067;-47
2023/12/02 02:47:22;;;;;;;0.93;0.93;;;;;;;;;;5015153;28;20029;-47
2023/12/02 02:49:47;;;;;;;0.80;0.35;;;;;;;;;;5017142;28;20076;-45
2023/12/02 02:52:13;;;;;;;0.93;0.93;;;;;;;;;;5006499;28;20030;-44
2023/12/02 02:54:38;;;;;;;0.90;0.90;;;;;;;;;;5013704;28;20088;-44
2023/12/02 02:57:05;;;;;;;0.57;0.50;;;;;;;;;;5007335;28;20033;-47
2023/12/02 02:59:30;;;;;;;0.57;0.57;;;;;;;;;;5012339;28;20745;-42
2023/12/02 03:01:55;;;;;;;0.95;0.82;;;;;;;;;;5005180;28;20072;-45
2023/12/02 03:04:21;;;;;;;0.70;0.65;;;;;;;;;;5015182;28;20030;-47
2023/12/02 03:06:46;;;;;;;1.17;1.17;;;;;;;;;;5014064;28;20048;-44
2023/12/02 03:09:12;;;;;;;1.42;1.02;;;;;;;;;;5009586;28;20034;-48
2023/12/02 03:11:38;;;;;;;0.55;0.40;;;;;;;;;;5002754;28;20042;-45
2023/12/02 03:14:03;;;;;;;0.95;0.95;;;;;;;;;;5016244;28;20456;-43
2023/12/02 03:16:28;;;;;;;1.23;1.23;;;;;;;;;;5010937;28;20029;-47
2023/12/02 03:18:54;;;;;;;1.73;1.60;;;;;;;;;;5005758;28;20146;-43
2023/12/02 03:21:19;;;;;;;1.42;1.38;;;;;;;;;;5001376;28;20038;-49
2023/12/02 03:23:47;;;;;;;1.08;1.08;;;;;;;;;;5001363;28;20033;-44
2023/12/02 03:26:13;;;;;;;1.27;1.17;;;;;;;;;;5009561;28;20054;-48
2023/12/02 03:28:38;;;;;;;1.63;1.52;;;;;;;;;;5015761;28;20047;-45
2023/12/02 03:31:04;;;;;;;0.85;0.85;;;;;;;;;;5012675;28;20046;-44
2023/12/02 03:33:29;;;;;;;1.20;0.60;;;;;;;;;;5004984;28;20103;-44
2023/12/02 03:35:55;;;;;;;1.13;1.13;;;;;;;;;;5016822;28;20050;-46
2023/12/02 03:38:20;;;;;;;1.13;1.13;;;;;;;;;;5013934;28;20022;-49
2023/12/02 03:40:45;;;;;;;0.80;0.80;;;;;;;;;;5002328;28;20051;-43
2023/12/02 03:43:11;;;;;;;0.73;0.73;;;;;;;;;;4997379;28;20022;-42
2023/12/02 03:45:36;;;;;;;0.70;0.70;;;;;;;;;;4995205;28;20124;-45
2023/12/02 03:48:02;;;;;;;2.70;1.05;;;;;;;;;;4986142;28;20045;-49
2023/12/02 03:50:27;;;;;;;1.17;1.17;;;;;;;;;;4998132;28;20491;-46
2023/12/02 03:52:53;;;;;;;2.63;2.50;;;;;;;;;;5008341;28;20365;-43
2023/12/02 03:55:19;;;;;;;1.35;1.25;;;;;;;;;;5012269;28;20064;-43
2023/12/02 03:57:44;;;;;;;1.23;0.98;;;;;;;;;;5012495;28;20026;-44
2023/12/02 04:00:13;;;;;;;1.45;1.35;;;;;;;;;;5002445;28;20670;-47
2023/12/02 04:02:40;;;;;;;1.13;0.70;;;;;;;;;;5014715;28;20018;-44
2023/12/02 04:05:10;;;;;;;1.13;1.02;;;;;;;;;;5009189;28;20041;-46
2023/12/02 04:07:36;;;;;;;0.80;0.80;;;;;;;;;;5011512;28;20030;-43
2023/12/02 04:10:03;;;;;;;1.33;1.23;;;;;;;;;;5007542;28;20503;-49
2023/12/02 04:12:29;;;;;;;0.57;0.57;;;;;;;;;;5006053;28;20033;-48
2023/12/02 04:14:55;;;;;;;2.08;0.80;;;;;;;;;;5010974;28;20049;-43
2023/12/02 04:17:21;;;;;;;3.00;0.60;;;;;;;;;;5005151;28;20022;-45
2023/12/02 04:19:47;;;;;;;0.80;0.40;;;;;;;;;;5005793;28;20026;-45
2023/12/02 04:22:12;;;;;;;0.45;0.30;;;;;;;;;;4999648;28;20113;-49
2023/12/02 04:24:39;;;;;;;0.93;0.93;;;;;;;;;;5015312;28;20030;-49
2023/12/02 04:27:05;;;;;;;1.73;1.13;;;;;;;;;;5012457;28;20021;-46
2023/12/02 04:29:31;;;;;;;2.17;2.08;;;;;;;;;;5008715;28;20527;-45
2023/12/02 04:31:57;;;;;;;1.08;1.08;;;;;;;;;;5000613;28;20037;-46
2023/12/02 04:34:22;;;;;;;1.45;1.35;;;;;;;;;;5008320;28;20499;-48
2023/12/02 04:36:48;;;;;;;2.30;2.20;;;;;;;;;;5011790;28;20518;-42
2023/12/02 04:39:14;;;;;;;1.13;1.02;;;;;;;;;;5013701;28;20392;-43
2023/12/02 04:41:39;;;;;;;1.67;1.58;;;;;;;;;;5013633;28;20048;-49
2023/12/02 04:44:06;;;;;;;1.48;1.30;;;;;;;;;;5010767;28;20480;-43
2023/12/02 04:46:31;;;;;;;0.55;0.52;;;;;;;;;;4988474;28;20046;-45
2023/12/02 04:48:57;;;;;;;1.65;1.52;;;;;;;;;;4984359;28;20037;-44
2023/12/02 04:51:22;;;;;;;2.38;2.22;;;;;;;;;;4993096;28;20034;-45
2023/12/02 04:53:48;;;;;;;0.75;0.73;;;;;;;;;;4991316;28;20623;-44
2023/12/02 04:56:13;;;;;;;1.77;1.67;;;;;;;;;;4996691;28;20050;-45
2023/12/02 04:58:39;;;;;;;0.68;0.63;;;;;;;;;;5008276;28;20025;-48
2023/12/02 05:01:04;;;;;;;1.25;1.15;;;;;;;;;;4998874;28;20061;-45
2023/12/02 05:03:30;;;;;;;2.00;1.63;;;;;;;;;;5005712;28;20436;-46
2023/12/02 05:05:55;;;;;;;1.23;0.80;;;;;;;;;;5007290;28;20048;-43
2023/12/02 05:08:20;;;;;;;1.52;1.42;;;;;;;;;;5005585;28;20025;-47
2023/12/02 05:10:46;;;;;;;1.25;1.08;;;;;;;;;;5008874;28;20038;-45
2023/12/02 05:13:12;;;;;;;2.15;2.05;;;;;;;;;;5010280;28;20384;-46
2023/12/02 05:15:38;;;;;;;1.20;1.10;;;;;;;;;;5005751;28;20393;-48
2023/12/02 05:18:04;;;;;;;1.90;1.80;;;;;;;;;;5002533;28;20041;-45
2023/12/02 05:20:29;;;;;;;0.90;0.77;;;;;;;;;;4989584;28;20046;-46
2023/12/02 05:22:54;;;;;;;1.92;1.83;;;;;;;;;;5013994;28;20034;-50
2023/12/02 05:25:20;;;;;;;1.55;1.45;;;;;;;;;;5008391;28;20064;-47
2023/12/02 05:27:46;;;;;;;1.13;1.02;;;;;;;;;;5012106;28;20057;-44
2023/12/02 05:30:14;;;;;;;1.80;1.70;;;;;;;;;;5009802;28;20053;-49
2023/12/02 05:32:40;;;;;;;1.70;1.05;;;;;;;;;;5007957;28;20041;-48
2023/12/02 05:35:10;;;;;;;2.10;2.00;;;;;;;;;;5000295;28;20034;-43
2023/12/02 05:37:36;;;;;;;2.25;2.05;;;;;;;;;;5005417;28;20062;-48
2023/12/02 05:40:03;;;;;;;1.95;1.85;;;;;;;;;;5005845;28;20053;-45
2023/12/02 05:42:28;;;;;;;1.58;1.48;;;;;;;;;;5011646;28;20037;-45
2023/12/02 05:44:54;;;;;;;1.35;1.10;;;;;;;;;;5005972;28;20617;-47
2023/12/02 05:47:19;;;;;;;1.35;1.13;;;;;;;;;;5019237;28;20471;-49
2023/12/02 05:49:45;;;;;;;1.65;1.55;;;;;;;;;;5007011;28;20053;-44
2023/12/02 05:52:10;;;;;;;1.17;1.10;;;;;;;;;;5009630;28;20032;-43
2023/12/02 05:54:36;;;;;;;1.83;1.52;;;;;;;;;;5010163;28;20443;-46
2023/12/02 05:57:01;;;;;;;1.88;1.75;;;;;;;;;;5011311;28;20488;-43
2023/12/02 05:59:26;;;;;;;1.35;1.25;;;;;;;;;;5012816;28;20048;-44
2023/12/02 06:01:52;;;;;;;2.97;2.85;;;;;;;;;;5012024;28;20451;-46
2023/12/02 06:04:17;;;;;;;2.15;2.03;;;;;;;;;;5016055;28;20030;-44
2023/12/02 06:06:47;;;;;;;2.70;2.50;;;;;;;;;;5004697;28;20038;-45
2023/12/02 06:09:12;;;;;;;1.75;1.60;;;;;;;;;;5014084;28;20065;-49
2023/12/02 06:11:38;;;;;;;1.90;1.80;;;;;;;;;;4998518;28;20042;-43
2023/12/02 06:14:03;;;;;;;2.35;1.83;;;;;;;;;;5017550;28;20599;-46
2023/12/02 06:16:28;;;;;;;2.60;1.98;;;;;;;;;;5007431;28;20586;-47
2023/12/02 06:18:54;;;;;;;3.55;3.35;;;;;;;;;;5010976;28;20391;-44
2023/12/02 06:21:19;;;;;;;2.67;2.40;;;;;;;;;;5001847;28;20524;-46
2023/12/02 06:23:45;;;;;;;1.55;1.45;;;;;;;;;;5013307;28;20476;-45
2023/12/02 06:26:10;;;;;;;2.83;2.30;;;;;;;;;;5002531;28;20045;-46
2023/12/02 06:28:35;;;;;;;2.88;2.63;;;;;;;;;;5014204;28;20432;-44
2023/12/02 06:31:01;;;;;;;3.67;3.38;;;;;;;;;;5010459;28;20568;-47
2023/12/02 06:33:26;;;;;;;4.00;3.80;;;;;;;;;;5017805;28;20399;-47
2023/12/02 06:35:52;;;;;;;3.92;3.17;;;;;;;;;;5009436;28;20041;-44
2023/12/02 06:38:17;;;;;;;5.32;5.03;;;;;;;;;;5013448;28;20389;-44
2023/12/02 06:40:42;;;;;;;2.53;2.28;;;;;;;;;;5012365;28;20045;-47
2023/12/02 06:43:08;;;;;;;5.15;2.85;;;;;;;;;;5016653;28;20068;-45
2023/12/02 06:45:34;;;;;;;3.78;3.47;;;;;;;;;;5012360;28;20046;-48
2023/12/02 06:48:01;;;;;;;4.75;3.17;;;;;;;;;;5015720;28;20033;-47
2023/12/02 06:50:26;;;;;;;2.80;2.60;;;;;;;;;;5012924;28;20464;-44
2023/12/02 06:52:51;;;;;;;2.47;2.28;;;;;;;;;;5013334;28;20032;-45
2023/12/02 06:55:17;;;;;;;2.60;2.40;;;;;;;;;;5010434;28;20096;-44
2023/12/02 06:57:42;;;;;;;4.15;3.95;;;;;;;;;;5017262;28;20446;-44
2023/12/02 07:00:10;;;;;;;2.60;2.40;;;;;;;;;;5016117;28;20037;-48
2023/12/02 07:02:35;;;;;;;2.25;2.15;;;;;;;;;;5011245;28;20033;-47
2023/12/02 07:05:01;;;;;;;2.88;2.15;;;;;;;;;;5013949;28;20038;-47
2023/12/02 07:07:26;;;;;;;2.42;2.22;;;;;;;;;;5017642;28;20049;-44
2023/12/02 07:09:51;;;;;;;2.35;2.00;;;;;;;;;;5006604;28;20465;-44
2023/12/02 07:12:17;;;;;;;2.22;2.08;;;;;;;;;;5013054;28;20029;-49
2023/12/02 07:14:42;;;;;;;2.90;2.65;;;;;;;;;;5011276;28;20041;-45
2023/12/02 07:17:08;;;;;;;3.33;2.42;;;;;;;;;;5009600;28;20026;-47
2023/12/02 07:19:33;;;;;;;1.83;1.50;;;;;;;;;;5013565;28;20026;-45
2023/12/02 07:21:58;;;;;;;2.10;2.00;;;;;;;;;;5010042;28;20030;-42
2023/12/02 07:24:24;;;;;;;1.60;1.50;;;;;;;;;;5011573;28;20097;-46
2023/12/02 07:26:49;;;;;;;2.42;2.22;;;;;;;;;;4996679;28;20038;-48
2023/12/02 07:29:14;;;;;;;2.28;1.55;;;;;;;;;;5013712;28;20029;-44
2023/12/02 07:31:40;;;;;;;2.63;2.42;;;;;;;;;;5013975;28;20037;-46
2023/12/02 07:34:05;;;;;;;3.17;3.05;;;;;;;;;;5006952;28;20484;-45
2023/12/02 07:36:31;;;;;;;2.22;1.88;;;;;;;;;;5003048;28;20046;-47
2023/12/02 07:38:56;;;;;;;3.17;2.97;;;;;;;;;;5008661;28;20033;-45
2023/12/02 07:41:22;;;;;;;4.57;4.28;;;;;;;;;;5005598;28;20079;-45
2023/12/02 07:43:47;;;;;;;1.88;1.77;;;;;;;;;;5011895;28;20030;-43
2023/12/02 07:46:13;;;;;;;2.30;2.05;;;;;;;;;;5001865;28;20099;-46
2023/12/02 07:48:38;;;;;;;2.40;2.20;;;;;;;;;;5004551;28;20030;-43
2023/12/02 07:51:05;;;;;;;2.33;2.22;;;;;;;;;;5008418;28;20041;-46
2023/12/02 07:53:31;;;;;;;1.67;1.58;;;;;;;;;;5011525;28;20033;-47
2023/12/02 07:55:56;;;;;;;4.43;4.13;;;;;;;;;;5010572;28;20396;-43
2023/12/02 07:58:21;;;;;;;4.13;3.72;;;;;;;;;;5007326;28;20032;-45
2023/12/02 08:00:47;;;;;;;2.55;2.35;;;;;;;;;;5005889;28;20069;-43
2023/12/02 08:03:12;;;;;;;2.42;2.22;;;;;;;;;;5003995;28;20030;-43
2023/12/02 08:05:38;;;;;;;2.78;2.58;;;;;;;;;;4986959;28;20049;-45
2023/12/02 08:08:03;;;;;;;3.15;2.95;;;;;;;;;;5023378;28;20034;-44
2023/12/02 08:10:29;;;;;;;4.03;3.83;;;;;;;;;;5012259;28;20065;-44
2023/12/02 08:12:54;;;;;;;2.20;1.90;;;;;;;;;;5009891;28;20113;-45
2023/12/02 08:15:20;;;;;;;2.95;2.45;;;;;;;;;;5010551;28;20052;-44
2023/12/02 08:17:46;;;;;;;2.60;2.35;;;;;;;;;;5012079;28;20112;-44
2023/12/02 08:20:12;;;;;;;3.92;3.63;;;;;;;;;;5011332;28;20562;-43
2023/12/02 08:22:37;;;;;;;3.05;2.75;;;;;;;;;;5009764;28;20030;-45
2023/12/02 08:25:03;;;;;;;3.22;3.03;;;;;;;;;;5011827;28;20045;-44
2023/12/02 08:27:28;;;;;;;2.28;2.15;;;;;;;;;;5006778;28;20160;-46
2023/12/02 08:29:54;;;;;;;2.33;2.10;;;;;;;;;;5009549;28;20026;-46
2023/12/02 08:32:19;;;;;;;3.85;3.55;;;;;;;;;;5001711;28;20046;-45
2023/12/02 08:34:45;;;;;;;2.88;2.58;;;;;;;;;;5001575;28;20030;-46
2023/12/02 08:37:10;;;;;;;4.05;3.75;;;;;;;;;;5012586;28;20038;-46
2023/12/02 08:39:37;;;;;;;2.20;1.98;;;;;;;;;;5003087;28;20029;-43
2023/12/02 08:42:02;;;;;;;3.10;2.90;;;;;;;;;;5002373;28;20051;-43
2023/12/02 08:44:28;;;;;;;2.92;2.40;;;;;;;;;;5009564;28;20034;-48
2023/12/02 08:46:53;;;;;;;3.20;2.90;;;;;;;;;;5004949;28;20459;-45
2023/12/02 08:49:19;;;;;;;2.88;2.67;;;;;;;;;;5009325;28;20033;-46
2023/12/02 08:51:45;;;;;;;3.00;2.75;;;;;;;;;;4998617;28;20047;-45
2023/12/02 08:54:10;;;;;;;3.88;3.58;;;;;;;;;;5015189;28;20117;-46
2023/12/02 08:56:36;;;;;;;5.18;4.68;;;;;;;;;;5007591;28;20034;-47
2023/12/02 08:59:02;;;;;;;5.22;4.80;;;;;;;;;;5003729;28;20377;-47
2023/12/02 09:01:28;;;;;;;3.30;2.15;;;;;;;;;;5007961;28;20080;-49
2023/12/02 09:03:54;;;;;;;3.28;3.03;;;;;;;;;;5005123;28;20057;-47
2023/12/02 09:06:19;;;;;;;3.75;3.45;;;;;;;;;;5005141;28;20504;-49
2023/12/02 09:08:44;;;;;;;3.20;2.72;;;;;;;;;;5006955;28;20088;-45
2023/12/02 09:11:10;;;;;;;4.22;2.97;;;;;;;;;;5010375;28;20045;-48
2023/12/02 09:13:48;;;;;;;4.28;3.88;;;;;;;;;;5006572;28;20034;-45
2023/12/02 09:16:26;;;;;;;3.95;2.95;;;;;;;;;;4999399;28;20087;-43
2023/12/02 09:18:51;;;;;;;3.00;2.65;;;;;;;;;;5010313;28;20029;-47
2023/12/02 09:21:20;;;;;;;3.00;2.70;;;;;;;;;;5009993;28;20042;-47
2023/12/02 09:23:47;;;;;;;2.72;2.47;;;;;;;;;;5007073;28;20026;-49
2023/12/02 09:26:28;;;;;;;2.47;2.28;;;;;;;;;;5012455;28;20527;-47
2023/12/02 09:28:55;;;;;;;2.60;2.40;;;;;;;;;;5010930;28;20030;-48
2023/12/02 09:31:20;;;;;;;3.95;3.63;;;;;;;;;;5012992;28;20866;-44
2023/12/02 09:33:54;;;;;;;3.03;2.83;;;;;;;;;;5014480;28;20081;-43
2023/12/02 09:36:39;;;;;;;2.33;2.20;;;;;;;;;;5012979;28;20061;-46
2023/12/02 09:39:07;;;;;;;2.33;2.13;;;;;;;;;;5011477;28;20044;-46
2023/12/02 09:41:44;;;;;;;2.38;2.15;;;;;;;;;;5012477;28;20061;-49
2023/12/02 09:44:09;;;;;;;2.55;2.35;;;;;;;;;;5009392;28;20041;-46
2023/12/02 09:46:48;;;;;;;2.50;1.75;;;;;;;;;;5007806;28;20046;-47
2023/12/02 09:49:51;;;;;;;2.35;2.15;;;;;;;;;;5007486;28;20033;-45
2023/12/02 09:52:42;;;;;;;2.10;1.63;;;;;;;;;;5009524;28;20050;-47
2023/12/02 09:55:13;;;;;;;2.22;1.90;;;;;;;;;;5009438;28;20106;-44
2023/12/02 09:58:25;;;;;;;1.90;1.75;;;;;;;;;;5015799;28;20033;-47
2023/12/02 10:00:59;;;;;;;2.75;1.63;;;;;;;;;;4983537;28;20053;-49
2023/12/02 10:03:34;;;;;;;2.35;2.03;;;;;;;;;;4988349;28;20026;-46
2023/12/02 10:06:21;;;;;;;2.53;2.33;;;;;;;;;;5006274;28;20820;-45
2023/12/02 10:09:00;;;;;;;2.10;1.98;;;;;;;;;;5012047;28;20026;-47
2023/12/02 10:11:45;;;;;;;1.55;1.27;;;;;;;;;;5015596;28;20046;-50
2023/12/02 10:14:11;;;;;;;2.00;1.88;;;;;;;;;;5010156;28;20030;-47
2023/12/02 10:16:39;;;;;;;2.85;2.65;;;;;;;;;;5007690;28;20087;-47
2023/12/02 10:19:18;;;;;;;2.60;2.13;;;;;;;;;;5005871;28;20036;-48
2023/12/02 10:21:45;;;;;;;2.47;2.28;;;;;;;;;;5007818;28;20495;-49
2023/12/02 10:24:14;;;;;;;3.15;2.60;;;;;;;;;;5008843;28;20033;-48
2023/12/02 10:27:10;;;;;;;1.80;1.70;;;;;;;;;;5015371;28;20065;-47
2023/12/02 10:29:46;;;;;;;2.70;2.50;;;;;;;;;;5010987;28;20057;-43
2023/12/02 10:32:24;;;;;;;3.67;2.75;;;;;;;;;;5011793;28;20042;-48
2023/12/02 10:35:10;;;;;;;2.60;2.40;;;;;;;;;;5009324;28;20033;-46
2023/12/02 10:37:38;;;;;;;1.50;1.17;;;;;;;;;;5003712;28;20026;-50
2023/12/02 10:40:08;;;;;;;2.10;1.95;;;;;;;;;;5009220;28;20044;-48
2023/12/02 10:42:51;;;;;;;1.73;1.05;;;;;;;;;;5007328;28;20117;-47
2023/12/02 10:45:19;;;;;;;1.75;1.60;;;;;;;;;;5015009;28;20049;-48
2023/12/02 10:47:47;;;;;;;1.50;1.10;;;;;;;;;;5014217;28;20420;-47
2023/12/02 10:50:13;;;;;;;2.10;1.90;;;;;;;;;;5009919;28;20038;-45
2023/12/02 10:53:00;;;;;;;2.65;2.45;;;;;;;;;;5007196;28;20022;-51
2023/12/02 10:55:28;;;;;;;4.68;4.47;;;;;;;;;;5011892;28;20033;-50
2023/12/02 10:57:55;;;;;;;1.95;1.67;;;;;;;;;;5008887;28;20021;-48
2023/12/02 11:00:21;;;;;;;2.63;2.47;;;;;;;;;;5011736;28;20042;-45
2023/12/02 11:02:54;;;;;;;1.65;1.13;;;;;;;;;;5014392;28;20156;-48
2023/12/02 11:05:22;;;;;;;2.75;1.63;;;;;;;;;;5010857;28;20042;-45
2023/12/02 11:07:51;;;;;;;1.80;1.60;;;;;;;;;;5007007;28;20026;-49
2023/12/02 11:10:27;;;;;;;2.00;1.50;;;;;;;;;;5014005;28;20078;-47
2023/12/02 11:12:59;;;;;;;1.65;1.52;;;;;;;;;;5008462;28;20041;-46
2023/12/02 11:15:27;;;;;;;2.65;2.22;;;;;;;;;;5012259;28;20041;-49
2023/12/02 11:18:03;;;;;;;2.22;2.05;;;;;;;;;;5011813;28;20022;-45
2023/12/02 11:21:01;;;;;;;1.77;1.55;;;;;;;;;;5007527;28;20042;-43
2023/12/02 11:23:39;;;;;;;2.50;2.40;;;;;;;;;;5003628;28;20048;-48
2023/12/02 11:26:25;;;;;;;2.03;1.90;;;;;;;;;;5007163;28;20049;-45
2023/12/02 11:29:12;;;;;;;2.25;1.35;;;;;;;;;;5008806;28;20029;-45
2023/12/02 11:31:40;;;;;;;1.33;1.05;;;;;;;;;;5010005;28;20046;-48
2023/12/02 11:34:12;;;;;;;1.85;1.63;;;;;;;;;;5006067;28;20034;-44
2023/12/02 11:36:43;;;;;;;1.30;1.00;;;;;;;;;;5006669;28;20034;-46
2023/12/02 11:39:23;;;;;;;1.50;1.10;;;;;;;;;;5009570;28;20030;-47
2023/12/02 11:41:59;;;;;;;1.67;1.58;;;;;;;;;;5007552;28;20045;-49
2023/12/02 11:44:55;;;;;;;1.77;1.67;;;;;;;;;;5002213;28;20503;-45
2023/12/02 11:47:23;;;;;;;1.38;0.95;;;;;;;;;;5007543;28;20046;-46
2023/12/02 11:50:04;;;;;;;1.25;1.25;;;;;;;;;;5009979;28;20026;-46
2023/12/02 11:52:56;;;;;;;1.42;1.30;;;;;;;;;;5004525;28;20030;-49
2023/12/02 11:55:32;;;;;;;2.05;1.85;;;;;;;;;;5008089;28;20133;-46
2023/12/02 11:58:27;;;;;;;4.68;1.48;;;;;;;;;;5008167;28;20044;-46
2023/12/02 12:01:34;;;;;;;2.53;2.42;;;;;;;;;;5012386;28;20394;-45
2023/12/02 12:04:23;;;;;;;1.88;1.52;;;;;;;;;;5026194;28;20735;-44
2023/12/02 12:07:24;;;;;;;5.95;5.75;;;;;;;;;;5012992;28;20372;-44
2023/12/02 12:10:14;;;;;;;4.38;4.22;;;;;;;;;;5014260;28;20384;-44
2023/12/02 12:12:43;;;;;;;1.58;1.48;;;;;;;;;;5012163;28;20546;-48
2023/12/02 12:15:09;;;;;;;2.50;1.88;;;;;;;;;;5012477;28;20093;-48
2023/12/02 12:17:34;;;;;;;2.28;1.70;;;;;;;;;;5004799;28;20042;-45
2023/12/02 12:20:23;;;;;;;1.85;1.17;;;;;;;;;;5007595;28;20038;-45
2023/12/02 12:22:48;;;;;;;1.42;1.33;;;;;;;;;;5005357;28;20080;-46
2023/12/02 12:25:14;;;;;;;2.15;1.52;;;;;;;;;;5007459;28;20041;-47
2023/12/02 12:27:40;;;;;;;1.75;1.23;;;;;;;;;;5010377;28;20026;-48
2023/12/02 12:30:07;;;;;;;3.40;3.20;;;;;;;;;;5004119;28;20400;-49
2023/12/02 12:32:32;;;;;;;1.60;1.35;;;;;;;;;;5011468;28;20121;-46
2023/12/02 12:34:57;;;;;;;1.42;0.85;;;;;;;;;;5003283;28;20121;-45
2023/12/02 12:37:23;;;;;;;1.00;0.73;;;;;;;;;;5003079;28;20026;-44
2023/12/02 12:39:49;;;;;;;1.80;1.70;;;;;;;;;;5004428;28;20017;-43
2023/12/02 12:42:19;;;;;;;1.73;1.33;;;;;;;;;;5006664;28;20109;-46
2023/12/02 12:44:45;;;;;;;3.00;1.30;;;;;;;;;;5006246;28;20064;-46
2023/12/02 12:47:12;;;;;;;3.63;1.83;;;;;;;;;;5007184;28;20029;-44
2023/12/02 12:49:40;;;;;;;2.20;2.03;;;;;;;;;;5004000;28;20487;-47
2023/12/02 12:52:12;;;;;;;1.85;1.75;;;;;;;;;;5010877;28;20030;-46
2023/12/02 12:54:55;;;;;;;1.60;1.48;;;;;;;;;;5007064;28;20523;-46
2023/12/02 12:57:49;;;;;;;2.88;2.65;;;;;;;;;;5003192;28;20541;-48
2023/12/02 13:00:16;;;;;;;2.55;2.35;;;;;;;;;;5006308;28;20105;-46
2023/12/02 13:03:22;;;;;;;2.53;1.73;;;;;;;;;;5006792;28;20093;-45
2023/12/02 13:05:57;;;;;;;2.85;2.15;;;;;;;;;;5008005;28;20050;-50
2023/12/02 13:08:30;;;;;;;;;;;;;;;;;;5005584;28;20034;-47
2023/12/02 13:11:00;;;;;;;2.10;1.77;;;;;;;;;;5006107;28;20368;-46
2023/12/02 13:13:29;;;;;;;2.78;2.15;;;;;;;;;;5009136;28;20029;-46
2023/12/02 13:15:56;;;;;;;2.42;2.22;;;;;;;;;;5013385;28;20056;-47
2023/12/02 13:18:22;;;;;;;2.33;1.65;;;;;;;;;;5007303;28;20026;-47
2023/12/02 13:20:51;;;;;;;2.65;2.45;;;;;;;;;;5003414;28;20046;-50
2023/12/02 13:23:21;;;;;;;2.40;2.22;;;;;;;;;;4998097;28;20026;-48
2023/12/02 13:25:47;;;;;;;4.20;4.00;;;;;;;;;;5012497;28;20411;-47
2023/12/02 13:28:26;;;;;;;2.80;1.85;;;;;;;;;;5012924;28;20026;-44
2023/12/02 13:30:54;;;;;;;4.68;4.28;;;;;;;;;;5002630;28;20696;-47
2023/12/02 13:33:53;;;;;;;3.55;3.25;;;;;;;;;;5008697;28;20155;-44
2023/12/02 13:36:23;;;;;;;3.80;2.80;;;;;;;;;;5012829;28;20049;-45
2023/12/02 13:38:54;;;;;;;3.97;3.60;;;;;;;;;;5002504;28;20377;-45
2023/12/02 13:41:30;;;;;;;2.72;2.10;;;;;;;;;;5014077;28;20090;-46
2023/12/02 13:43:55;;;;;;;5.10;3.78;;;;;;;;;;5013199;28;20061;-44
2023/12/02 13:46:30;;;;;;;2.47;2.28;;;;;;;;;;4995840;28;20046;-47
2023/12/02 13:49:09;;;;;;;3.08;2.45;;;;;;;;;;4988077;28;20724;-48
2023/12/02 13:51:41;;;;;;;4.38;2.88;;;;;;;;;;4988527;28;20038;-43
2023/12/02 13:54:52;;;;;;;4.13;3.00;;;;;;;;;;4990894;28;20041;-47
2023/12/02 13:57:44;;;;;;;2.55;2.35;;;;;;;;;;4993793;28;20054;-48
2023/12/02 14:00:11;;;;;;;2.20;1.88;;;;;;;;;;4987237;28;20050;-43
2023/12/02 14:03:04;;;;;;;2.97;2.63;;;;;;;;;;4995675;28;20022;-45
2023/12/02 14:05:54;;;;;;;3.15;2.13;;;;;;;;;;4982204;28;20038;-45
2023/12/02 14:08:21;;;;;;;3.85;3.50;;;;;;;;;;4996964;28;20034;-45
2023/12/02 14:10:50;;;;;;;3.05;2.75;;;;;;;;;;4994591;28;20038;-47
2023/12/02 14:13:20;;;;;;;2.60;2.40;;;;;;;;;;4997321;28;20025;-45
2023/12/02 14:15:51;;;;;;;6.22;5.72;;;;;;;;;;4993512;28;20073;-46
2023/12/02 14:18:22;;;;;;;3.63;2.70;;;;;;;;;;4998994;28;20030;-44
2023/12/02 14:21:24;;;;;;;2.35;2.17;;;;;;;;;;4986820;28;20053;-43
2023/12/02 14:23:59;;;;;;;3.83;2.13;;;;;;;;;;4997104;28;20026;-47
2023/12/02 14:26:48;;;;;;;4.13;2.63;;;;;;;;;;4997168;28;20038;-46
2023/12/02 14:29:38;;;;;;;4.55;3.13;;;;;;;;;;4993592;28;20053;-43
2023/12/02 14:32:05;;;;;;;3.88;3.58;;;;;;;;;;4995753;28;20485;-45
2023/12/02 14:34:53;;;;;;;4.47;3.42;;;;;;;;;;4991575;28;20455;-49
2023/12/02 14:37:21;;;;;;;3.85;3.45;;;;;;;;;;4992081;28;20043;-46
2023/12/02 14:40:16;;;;;;;3.22;2.38;;;;;;;;;;4989944;28;20030;-43
2023/12/02 14:43:09;;;;;;;3.35;2.70;;;;;;;;;;4993569;28;20509;-45
2023/12/02 14:45:34;;;;;;;4.97;4.57;;;;;;;;;;4998034;28;20061;-45
2023/12/02 14:48:07;;;;;;;4.07;3.78;;;;;;;;;;4995782;28;20026;-44
2023/12/02 14:50:33;;;;;;;3.40;2.25;;;;;;;;;;4990839;28;20070;-44
2023/12/02 14:52:59;;;;;;;3.63;2.88;;;;;;;;;;4992928;28;20054;-43
2023/12/02 14:55:30;;;;;;;2.78;2.58;;;;;;;;;;4998037;28;20046;-46
2023/12/02 14:58:19;;;;;;;3.15;2.92;;;;;;;;;;4991317;28;20042;-43